Time;durP1;ratioP1;P1;durP2;ratioP2;P2;SDS_P1;SDS_P2;PMS_P1;PMS_P2;Temp;Humidity;BMP_temperature;BMP_pressure;BME280_temperature;BME280_humidity;BME280_pressure;Samples;Min_cycle;Max_cycle;Signal;HPM_P1;HPM_P2
2023/03/31 00:01:48;;;;;;;5.38;0.57;;;9.50;99.90;;;;;;5070187;28;20105;-84
2023/03/31 00:04:14;;;;;;;0.05;0.05;;;9.60;99.90;;;;;;5070475;28;21169;-84
2023/03/31 00:06:41;;;;;;;2.40;1.27;;;9.60;99.90;;;;;;5060874;28;20061;-84
2023/03/31 00:09:13;;;;;;;0.77;0.75;;;9.80;99.90;;;;;;5054296;28;20414;-83
2023/03/31 00:11:39;;;;;;;0.90;0.20;;;9.80;99.90;;;;;;5051987;28;20470;-84
2023/03/31 00:14:06;;;;;;;1.35;0.80;;;9.90;99.90;;;;;;5050585;28;20116;-84
2023/03/31 00:16:36;;;;;;;3.72;0.75;;;9.90;99.90;;;;;;5054403;28;20091;-84
2023/03/31 00:19:03;;;;;;;1.52;0.43;;;10.10;99.90;;;;;;5054571;28;20053;-85
2023/03/31 00:21:32;;;;;;;0.80;0.75;;;10.00;99.90;;;;;;5050977;28;20048;-84
2023/03/31 00:24:08;;;;;;;6.10;2.60;;;10.00;99.90;;;;;;5050220;28;20045;-84
2023/03/31 00:26:34;;;;;;;0.15;0.15;;;9.90;99.90;;;;;;5058319;28;20478;-84
2023/03/31 00:29:01;;;;;;;0.13;0.10;;;10.10;99.90;;;;;;5070338;28;20447;-85
2023/03/31 00:31:27;;;;;;;0.85;0.52;;;9.80;99.90;;;;;;5069713;28;20094;-85
2023/03/31 00:33:54;;;;;;;1.73;1.63;;;9.70;99.90;;;;;;5068845;28;20048;-84
2023/03/31 00:36:26;;;;;;;1.17;1.02;;;9.70;99.90;;;;;;5063495;28;20114;-84
2023/03/31 00:38:53;;;;;;;0.43;0.25;;;9.70;99.90;;;;;;5059712;28;20055;-84
2023/03/31 00:41:19;;;;;;;2.38;0.45;;;9.60;99.90;;;;;;5068804;28;20053;-85
2023/03/31 00:44:05;;;;;;;3.90;1.85;;;9.50;99.90;;;;;;5068840;28;20044;-84
2023/03/31 00:46:39;;;;;;;7.88;1.45;;;10.40;99.90;;;;;;5056741;28;20048;-85
2023/03/31 00:49:07;;;;;;;0.80;0.80;;;9.50;99.90;;;;;;5059357;28;20041;-84
2023/03/31 00:51:34;;;;;;;0.00;0.00;;;9.60;99.90;;;;;;5067184;28;20056;-85
2023/03/31 00:54:04;;;;;;;0.15;0.15;;;10.70;99.90;;;;;;5068674;28;20967;-85
2023/03/31 00:56:35;;;;;;;0.10;0.00;;;9.60;99.90;;;;;;5068834;28;20073;-85
2023/03/31 00:59:06;;;;;;;4.10;0.75;;;9.60;99.90;;;;;;5068168;28;20524;-84
2023/03/31 01:01:34;;;;;;;0.75;0.60;;;9.50;99.90;;;;;;5068605;28;20051;-85
2023/03/31 01:04:02;;;;;;;0.55;0.55;;;9.40;99.90;;;;;;5068405;28;20071;-85
2023/03/31 01:06:29;;;;;;;4.00;2.35;;;9.60;99.90;;;;;;5058191;28;20057;-85
2023/03/31 01:08:56;;;;;;;0.10;0.10;;;9.30;99.90;;;;;;5054866;28;20044;-84
2023/03/31 01:11:26;;;;;;;0.30;0.30;;;9.20;99.90;;;;;;5068493;28;20423;-85
2023/03/31 01:13:54;;;;;;;4.75;1.25;;;9.10;99.90;;;;;;5068198;28;20055;-85
2023/03/31 01:16:21;;;;;;;0.85;0.65;;;9.00;99.90;;;;;;5068621;28;20036;-84
2023/03/31 01:18:48;;;;;;;0.00;0.00;;;9.00;99.90;;;;;;5066928;28;20131;-84
2023/03/31 01:21:36;;;;;;;0.43;0.43;;;9.20;99.90;;;;;;5068872;28;20091;-85
2023/03/31 01:24:08;;;;;;;0.10;0.10;;;8.80;99.90;;;;;;5068727;28;20481;-85
2023/03/31 01:26:52;;;;;;;0.32;0.32;;;8.80;99.90;;;;;;5068714;28;20049;-84
2023/03/31 01:29:48;;;;;;;0.10;0.10;;;8.80;99.90;;;;;;5067365;28;20051;-85
2023/03/31 01:32:35;;;;;;;0.00;0.00;;;8.80;99.90;;;;;;5067641;28;20053;-84
2023/03/31 01:35:18;;;;;;;0.05;0.05;;;8.80;99.90;;;;;;5066732;28;20051;-85
2023/03/31 01:38:03;;;;;;;0.22;0.17;;;8.70;99.90;;;;;;5048923;28;20041;-84
2023/03/31 01:40:59;;;;;;;0.00;0.00;;;8.60;99.90;;;;;;5026306;28;20064;-85
2023/03/31 01:43:33;;;;;;;0.20;0.20;;;8.60;99.90;;;;;;5027624;28;20060;-84
2023/03/31 01:46:20;;;;;;;1.95;1.08;;;8.50;99.90;;;;;;5034915;28;20086;-85
2023/03/31 01:49:13;;;;;;;0.75;0.63;;;8.50;99.90;;;;;;5060908;28;20593;-85
2023/03/31 01:51:59;;;;;;;0.05;0.05;;;8.50;99.90;;;;;;5050173;28;20059;-85
2023/03/31 01:54:49;;;;;;;0.10;0.10;;;8.50;99.90;;;;;;5055287;28;20505;-85
2023/03/31 01:57:26;;;;;;;3.50;1.73;;;8.50;99.90;;;;;;5055785;28;20562;-85
2023/03/31 02:00:02;;;;;;;0.03;0.03;;;8.60;99.90;;;;;;5050457;28;20057;-85
2023/03/31 02:02:31;;;;;;;0.47;0.47;;;8.60;99.90;;;;;;5049902;28;20052;-85
2023/03/31 02:05:04;;;;;;;0.45;0.38;;;8.70;99.90;;;;;;5050955;28;20111;-84
2023/03/31 02:07:38;;;;;;;0.00;0.00;;;8.70;99.90;;;;;;5048903;28;20509;-84
2023/03/31 02:10:09;;;;;;;0.60;0.60;;;8.70;99.90;;;;;;5048339;28;20060;-85
2023/03/31 02:12:37;;;;;;;0.00;0.00;;;9.40;99.90;;;;;;5050003;28;20402;-84
2023/03/31 02:15:05;;;;;;;7.13;2.28;;;8.80;99.90;;;;;;5049412;28;20128;-85
2023/03/31 02:17:31;;;;;;;6.88;0.63;;;8.70;99.90;;;;;;5064753;28;20499;-85
2023/03/31 02:20:04;;;;;;;4.75;0.32;;;8.80;99.90;;;;;;5054677;28;20116;-86
2023/03/31 02:22:34;;;;;;;0.38;0.38;;;8.80;99.90;;;;;;5051013;28;20100;-84
2023/03/31 02:25:02;;;;;;;1.25;1.13;;;8.80;99.90;;;;;;5050497;28;20045;-85
2023/03/31 02:27:32;;;;;;;0.70;0.70;;;8.80;99.90;;;;;;5065980;28;20059;-83
2023/03/31 02:29:58;;;;;;;1.05;0.73;;;8.80;99.90;;;;;;5069669;28;20467;-84
2023/03/31 02:32:35;;;;;;;3.20;0.45;;;8.80;99.90;;;;;;5069835;28;20478;-83
2023/03/31 02:35:02;;;;;;;5.15;2.17;;;8.80;99.90;;;;;;5067382;28;20057;-84
2023/03/31 02:37:29;;;;;;;0.20;0.20;;;8.90;99.90;;;;;;5052029;28;20045;-83
2023/03/31 02:39:58;;;;;;;0.40;0.40;;;8.90;99.90;;;;;;5066661;28;20532;-84
2023/03/31 02:42:24;;;;;;;0.00;0.00;;;9.00;99.90;;;;;;5067516;28;20139;-84
2023/03/31 02:44:51;;;;;;;10.75;0.85;;;9.00;99.90;;;;;;5067751;28;20083;-83
2023/03/31 02:47:19;;;;;;;0.10;0.10;;;9.10;99.90;;;;;;5067892;28;20052;-84
2023/03/31 02:49:55;;;;;;;0.70;0.50;;;9.10;99.90;;;;;;5055244;28;20068;-84
2023/03/31 02:52:44;;;;;;;3.42;1.00;;;9.20;99.90;;;;;;5046391;28;20049;-84
2023/03/31 02:55:24;;;;;;;0.65;0.65;;;9.20;99.90;;;;;;5046105;28;20064;-84
2023/03/31 02:58:18;;;;;;;0.55;0.55;;;9.20;99.90;;;;;;5046982;28;20922;-84
2023/03/31 03:01:02;;;;;;;0.17;0.17;;;9.20;99.90;;;;;;5064888;28;20044;-84
2023/03/31 03:03:53;;;;;;;0.00;0.00;;;9.30;99.90;;;;;;5068486;28;20048;-85
2023/03/31 03:06:22;;;;;;;0.88;0.57;;;9.40;99.90;;;;;;5068567;28;20044;-84
2023/03/31 03:09:17;;;;;;;0.00;0.00;;;9.40;99.90;;;;;;5060949;28;20544;-85
2023/03/31 03:12:05;;;;;;;0.47;0.40;;;9.30;99.90;;;;;;5065545;28;20063;-85
2023/03/31 03:14:35;;;;;;;0.00;0.00;;;9.30;99.90;;;;;;5069503;28;20553;-84
2023/03/31 03:17:13;;;;;;;0.13;0.13;;;9.20;99.90;;;;;;5054071;28;20102;-85
2023/03/31 03:19:41;;;;;;;2.85;1.40;;;9.20;99.90;;;;;;5052286;28;20130;-84
2023/03/31 03:22:07;;;;;;;0.45;0.30;;;9.20;99.90;;;;;;5050974;28;20045;-84
2023/03/31 03:24:33;;;;;;;0.15;0.15;;;9.20;99.90;;;;;;5050493;28;20502;-84
2023/03/31 03:26:59;;;;;;;0.38;0.38;;;9.20;99.90;;;;;;5053059;28;20124;-84
2023/03/31 03:29:26;;;;;;;0.55;0.55;;;9.30;99.90;;;;;;5051464;28;20045;-84
2023/03/31 03:31:52;;;;;;;0.17;0.17;;;9.30;99.90;;;;;;5050807;28;20062;-84
2023/03/31 03:34:19;;;;;;;0.85;0.82;;;9.30;99.90;;;;;;5051179;28;20052;-85
2023/03/31 03:36:46;;;;;;;0.63;0.52;;;9.30;99.90;;;;;;5051647;28;20080;-84
2023/03/31 03:39:11;;;;;;;0.15;0.10;;;9.30;99.90;;;;;;5051784;28;20048;-84
2023/03/31 03:41:37;;;;;;;2.75;1.02;;;9.40;99.90;;;;;;5051364;28;20049;-84
2023/03/31 03:44:04;;;;;;;7.05;1.98;;;9.40;99.90;;;;;;5051004;28;20056;-84
2023/03/31 03:46:29;;;;;;;0.00;0.00;;;9.40;99.90;;;;;;5059744;28;20089;-84
2023/03/31 03:48:55;;;;;;;4.80;2.63;;;9.40;99.90;;;;;;5070954;28;20052;-84
2023/03/31 03:51:21;;;;;;;0.82;0.70;;;9.50;99.90;;;;;;5071100;28;20457;-84
2023/03/31 03:53:47;;;;;;;0.57;0.45;;;9.70;99.90;;;;;;5070851;28;20047;-83
2023/03/31 03:56:13;;;;;;;0.30;0.28;;;9.50;99.90;;;;;;5072003;28;20390;-86
2023/03/31 03:58:39;;;;;;;0.10;0.10;;;9.60;99.90;;;;;;5071887;28;20078;-86
2023/03/31 04:01:04;;;;;;;0.05;0.05;;;9.50;99.90;;;;;;5064758;28;20336;-85
2023/03/31 04:03:30;;;;;;;0.00;0.00;;;9.50;99.90;;;;;;5072360;28;20070;-86
2023/03/31 04:05:56;;;;;;;0.20;0.20;;;9.40;99.90;;;;;;5072284;28;20064;-85
2023/03/31 04:08:23;;;;;;;0.80;0.15;;;9.30;99.90;;;;;;5072161;28;20375;-85
2023/03/31 04:10:49;;;;;;;0.03;0.03;;;9.40;99.90;;;;;;5065013;28;20504;-85
2023/03/31 04:13:16;;;;;;;0.90;0.90;;;9.90;99.90;;;;;;5072727;28;20047;-86
2023/03/31 04:15:42;;;;;;;0.40;0.40;;;9.30;99.90;;;;;;5068991;28;20143;-86
2023/03/31 04:18:21;;;;;;;0.00;0.00;;;9.40;99.90;;;;;;5050283;28;20494;-87
2023/03/31 04:21:02;;;;;;;1.05;0.38;;;9.60;99.90;;;;;;5066832;28;20044;-86
2023/03/31 04:23:29;;;;;;;0.10;0.10;;;9.40;99.90;;;;;;5072513;28;20051;-86
2023/03/31 04:25:54;;;;;;;0.25;0.25;;;9.40;99.90;;;;;;5064561;28;20127;-87
2023/03/31 04:28:20;;;;;;;0.00;0.00;;;9.40;99.90;;;;;;5058376;28;20076;-86
2023/03/31 04:30:46;;;;;;;0.63;0.45;;;10.30;99.90;;;;;;5058329;28;20543;-86
2023/03/31 04:33:14;;;;;;;0.20;0.10;;;9.40;99.90;;;;;;5051538;28;20113;-86
2023/03/31 04:35:49;;;;;;;0.90;0.80;;;9.40;99.90;;;;;;5035405;28;20056;-87
2023/03/31 04:38:22;;;;;;;0.88;0.60;;;9.50;99.90;;;;;;5053302;28;20056;-86
2023/03/31 04:40:50;;;;;;;0.47;0.47;;;9.40;99.90;;;;;;5052682;28;20410;-86
2023/03/31 04:43:17;;;;;;;0.85;0.70;;;9.40;99.90;;;;;;5053137;28;20441;-86
2023/03/31 04:45:43;;;;;;;0.00;0.00;;;9.40;99.90;;;;;;5052689;28;20053;-85
2023/03/31 04:48:10;;;;;;;0.00;0.00;;;10.00;99.90;;;;;;5052789;28;20051;-86
2023/03/31 04:50:36;;;;;;;4.95;0.90;;;9.30;99.90;;;;;;5052949;28;20138;-85
2023/03/31 04:53:02;;;;;;;8.07;0.55;;;9.30;99.90;;;;;;5051104;28;20070;-85
2023/03/31 04:55:28;;;;;;;1.55;0.75;;;9.30;99.90;;;;;;5051963;28;20317;-85
2023/03/31 04:57:53;;;;;;;0.00;0.00;;;9.30;99.90;;;;;;5069181;28;20126;-86
2023/03/31 05:00:20;;;;;;;8.20;1.35;;;9.30;99.90;;;;;;5070380;28;20049;-85
2023/03/31 05:02:45;;;;;;;0.00;0.00;;;9.30;99.90;;;;;;5054684;28;20057;-85
2023/03/31 05:05:11;;;;;;;0.10;0.10;;;9.30;99.90;;;;;;5051083;28;20052;-85
2023/03/31 05:07:37;;;;;;;0.25;0.25;;;9.30;99.90;;;;;;5050832;28;20037;-85
2023/03/31 05:10:05;;;;;;;0.80;0.75;;;9.30;99.90;;;;;;5048954;28;20081;-85
2023/03/31 05:12:34;;;;;;;5.88;0.77;;;9.30;99.90;;;;;;5050444;28;20048;-85
2023/03/31 05:15:00;;;;;;;0.10;0.10;;;9.30;99.90;;;;;;5048363;28;20053;-86
2023/03/31 05:17:30;;;;;;;0.55;0.43;;;9.40;99.90;;;;;;5047992;28;20041;-85
2023/03/31 05:19:55;;;;;;;0.65;0.45;;;9.40;99.90;;;;;;5048974;28;20049;-85
2023/03/31 05:22:21;;;;;;;0.00;0.00;;;9.50;99.90;;;;;;5065538;28;20051;-85
2023/03/31 05:24:47;;;;;;;2.25;0.68;;;9.50;99.90;;;;;;5066638;28;20354;-85
2023/03/31 05:27:12;;;;;;;0.10;0.10;;;9.50;99.90;;;;;;5054176;28;20041;-85
2023/03/31 05:29:38;;;;;;;0.25;0.25;;;9.50;99.90;;;;;;5048211;28;20114;-84
2023/03/31 05:32:04;;;;;;;0.00;0.00;;;9.60;99.90;;;;;;5050145;28;20045;-86
2023/03/31 05:34:30;;;;;;;2.88;0.85;;;9.60;99.90;;;;;;5051055;28;20045;-85
2023/03/31 05:36:56;;;;;;;0.17;0.17;;;9.60;99.90;;;;;;5050601;28;20087;-86
2023/03/31 05:39:22;;;;;;;0.52;0.52;;;10.90;99.90;;;;;;5050714;28;20040;-85
2023/03/31 05:41:48;;;;;;;0.08;0.00;;;9.70;99.90;;;;;;5051363;28;20064;-84
2023/03/31 05:44:13;;;;;;;1.55;0.55;;;9.70;99.90;;;;;;5049470;28;20049;-84
2023/03/31 05:46:40;;;;;;;2.70;0.45;;;9.60;99.90;;;;;;5049305;28;20061;-85
2023/03/31 05:49:05;;;;;;;0.45;0.35;;;9.60;99.90;;;;;;5051473;28;20060;-85
2023/03/31 05:51:31;;;;;;;0.00;0.00;;;9.60;99.90;;;;;;5052555;28;20049;-84
2023/03/31 05:53:57;;;;;;;0.75;0.75;;;9.60;99.90;;;;;;5046967;28;20061;-85
2023/03/31 05:56:23;;;;;;;0.90;0.60;;;9.50;99.90;;;;;;5041026;28;20402;-85
2023/03/31 05:58:48;;;;;;;0.30;0.30;;;9.50;99.90;;;;;;5039429;28;20057;-85
2023/03/31 06:01:21;;;;;;;0.10;0.10;;;9.50;99.90;;;;;;5040677;28;20056;-85
2023/03/31 06:03:47;;;;;;;0.00;0.00;;;9.70;99.90;;;;;;5040333;28;20053;-84
2023/03/31 06:06:15;;;;;;;0.20;0.20;;;9.60;99.90;;;;;;5040310;28;21080;-85
2023/03/31 06:08:44;;;;;;;0.15;0.15;;;9.60;99.90;;;;;;5040855;28;20052;-85
2023/03/31 06:11:13;;;;;;;0.17;0.17;;;9.60;99.90;;;;;;5041009;28;20048;-84
2023/03/31 06:13:39;;;;;;;0.47;0.40;;;9.60;99.90;;;;;;5041928;28;20052;-85
2023/03/31 06:16:06;;;;;;;0.10;0.10;;;9.60;99.90;;;;;;5044390;28;20425;-84
2023/03/31 06:18:34;;;;;;;0.10;0.10;;;9.60;99.90;;;;;;5042086;28;20049;-85
2023/03/31 06:21:00;;;;;;;0.00;0.00;;;9.60;99.90;;;;;;5041991;28;20507;-85
2023/03/31 06:23:26;;;;;;;0.28;0.28;;;9.60;99.90;;;;;;5041907;28;20384;-85
2023/03/31 06:25:52;;;;;;;0.20;0.20;;;9.60;99.90;;;;;;5042261;28;20123;-85
2023/03/31 06:28:19;;;;;;;0.38;0.38;;;9.70;99.90;;;;;;5042262;28;20049;-85
2023/03/31 06:30:45;;;;;;;0.00;0.00;;;9.60;99.90;;;;;;5040818;28;20057;-85
2023/03/31 06:33:12;;;;;;;0.20;0.20;;;10.70;99.90;;;;;;5042275;28;20055;-85
2023/03/31 06:35:39;;;;;;;0.22;0.22;;;9.60;99.90;;;;;;5040625;28;20488;-84
2023/03/31 06:38:05;;;;;;;0.10;0.10;;;9.60;99.90;;;;;;5041758;28;20048;-85
2023/03/31 06:40:31;;;;;;;0.90;0.70;;;9.60;99.90;;;;;;5042307;28;20053;-84
2023/03/31 06:42:56;;;;;;;0.57;0.43;;;9.60;99.90;;;;;;5042092;28;20047;-85
2023/03/31 06:45:22;;;;;;;1.45;0.85;;;9.50;99.90;;;;;;5041749;28;20052;-85
2023/03/31 06:47:48;;;;;;;0.15;0.15;;;9.50;99.90;;;;;;5042158;28;20047;-85
2023/03/31 06:50:13;;;;;;;0.00;0.00;;;9.60;99.90;;;;;;5041931;28;20083;-85
2023/03/31 06:52:42;;;;;;;0.25;0.25;;;9.60;99.90;;;;;;5042655;28;20122;-85
2023/03/31 06:55:08;;;;;;;0.28;0.20;;;9.60;99.90;;;;;;5044269;28;20083;-84
2023/03/31 06:57:34;;;;;;;0.32;0.28;;;9.60;99.90;;;;;;5044348;28;20597;-84
2023/03/31 07:00:00;;;;;;;0.10;0.10;;;9.50;99.90;;;;;;5044886;28;20135;-84
2023/03/31 07:02:25;;;;;;;0.30;0.22;;;9.60;99.90;;;;;;5044084;28;20041;-84
2023/03/31 07:04:51;;;;;;;0.10;0.10;;;9.60;99.90;;;;;;5044073;28;20076;-84
2023/03/31 07:07:17;;;;;;;0.10;0.10;;;9.70;99.90;;;;;;5044131;28;20134;-84
2023/03/31 07:09:43;;;;;;;0.68;0.52;;;9.60;99.90;;;;;;5044237;28;20052;-84
2023/03/31 07:12:09;;;;;;;0.43;0.22;;;9.70;99.90;;;;;;5043831;28;20045;-84
2023/03/31 07:14:35;;;;;;;0.28;0.25;;;9.70;99.90;;;;;;5042790;28;20060;-84
2023/03/31 07:17:02;;;;;;;0.45;0.30;;;9.70;99.90;;;;;;5043490;28;20134;-84
2023/03/31 07:19:28;;;;;;;0.00;0.00;;;9.70;99.90;;;;;;5043377;28;20514;-84
2023/03/31 07:21:55;;;;;;;0.32;0.25;;;9.70;99.90;;;;;;5043211;28;20166;-84
2023/03/31 07:24:21;;;;;;;0.00;0.00;;;9.70;99.90;;;;;;5043791;28;20368;-85
2023/03/31 07:26:47;;;;;;;0.00;0.00;;;9.80;99.90;;;;;;5042114;28;20117;-84
2023/03/31 07:29:13;;;;;;;0.25;0.25;;;9.70;99.90;;;;;;5046971;28;20061;-84
2023/03/31 07:31:39;;;;;;;0.00;0.00;;;9.70;99.90;;;;;;5042630;28;20560;-84
2023/03/31 07:34:04;;;;;;;0.15;0.15;;;9.70;99.90;;;;;;5043041;28;20040;-85
2023/03/31 07:36:31;;;;;;;0.00;0.00;;;9.70;99.90;;;;;;5055995;28;20043;-85
2023/03/31 07:38:57;;;;;;;0.00;0.00;;;9.80;99.90;;;;;;5063983;28;20385;-85
2023/03/31 07:41:23;;;;;;;0.08;0.03;;;10.90;99.90;;;;;;5064204;28;20048;-85
2023/03/31 07:43:50;;;;;;;12.93;0.45;;;9.70;99.90;;;;;;5063944;28;20059;-86
2023/03/31 07:46:25;;;;;;;0.20;0.15;;;9.80;99.90;;;;;;5063736;28;20056;-86
2023/03/31 07:48:52;;;;;;;0.22;0.22;;;9.70;99.90;;;;;;5064110;28;20162;-86
2023/03/31 07:51:20;;;;;;;0.32;0.05;;;9.70;99.90;;;;;;5063985;28;20056;-86
2023/03/31 07:53:48;;;;;;;0.32;0.32;;;9.60;99.90;;;;;;5063397;28;20048;-85
2023/03/31 07:56:15;;;;;;;0.20;0.13;;;9.60;99.90;;;;;;5052714;28;20551;-85
2023/03/31 07:58:42;;;;;;;0.00;0.00;;;9.60;99.90;;;;;;5043713;28;20131;-85
2023/03/31 08:01:07;;;;;;;0.00;0.00;;;9.60;99.90;;;;;;5043933;28;20512;-85
2023/03/31 08:03:33;;;;;;;0.05;0.03;;;9.60;99.90;;;;;;5042841;28;20080;-85
2023/03/31 08:05:59;;;;;;;0.00;0.00;;;9.60;99.90;;;;;;5042243;28;20049;-85
2023/03/31 08:08:28;;;;;;;0.00;0.00;;;9.60;99.90;;;;;;5042285;28;20977;-85
2023/03/31 08:10:53;;;;;;;0.73;0.08;;;9.60;99.90;;;;;;5039714;28;20049;-85
2023/03/31 08:13:21;;;;;;;0.00;0.00;;;9.70;99.90;;;;;;5041184;28;20099;-85
2023/03/31 08:15:47;;;;;;;0.80;0.63;;;9.80;99.90;;;;;;5040380;28;20129;-85
2023/03/31 08:18:13;;;;;;;0.00;0.00;;;9.80;99.90;;;;;;5039818;28;20418;-84
2023/03/31 08:20:38;;;;;;;0.20;0.13;;;9.80;99.90;;;;;;5039986;28;20132;-85
2023/03/31 08:23:07;;;;;;;20.83;1.30;;;9.90;99.90;;;;;;5039528;28;20163;-84
2023/03/31 08:25:34;;;;;;;0.55;0.55;;;9.90;99.90;;;;;;5036623;28;20618;-85
2023/03/31 08:27:59;;;;;;;0.13;0.10;;;10.00;99.90;;;;;;5038499;28;20048;-84
2023/03/31 08:30:25;;;;;;;0.00;0.00;;;10.00;99.90;;;;;;5038777;28;20569;-84
2023/03/31 08:32:50;;;;;;;0.10;0.05;;;10.10;99.90;;;;;;5038814;28;20560;-85
2023/03/31 08:35:16;;;;;;;0.98;0.85;;;10.20;99.90;;;;;;5037903;28;20426;-84
2023/03/31 08:37:42;;;;;;;0.00;0.00;;;10.20;99.90;;;;;;5038689;28;20156;-85
2023/03/31 08:40:17;;;;;;;0.00;0.00;;;10.30;99.90;;;;;;5038825;28;20072;-85
2023/03/31 08:42:47;;;;;;;0.23;0.23;;;10.60;99.90;;;;;;5038138;28;20045;-85
2023/03/31 08:45:21;;;;;;;0.08;0.08;;;10.30;99.90;;;;;;5037718;28;20313;-85
2023/03/31 08:47:51;;;;;;;0.60;0.45;;;10.40;99.90;;;;;;5038637;28;20052;-85
2023/03/31 08:50:22;;;;;;;0.45;0.38;;;10.40;99.90;;;;;;5031436;28;20068;-85
2023/03/31 08:53:20;;;;;;;0.00;0.00;;;10.40;99.90;;;;;;5021173;28;20553;-84
2023/03/31 08:55:50;;;;;;;0.00;0.00;;;10.40;99.90;;;;;;5026284;28;20067;-85
2023/03/31 08:58:40;;;;;;;0.00;0.00;;;10.40;99.90;;;;;;5039375;28;20128;-84
2023/03/31 09:01:43;;;;;;;0.47;0.30;;;10.40;99.90;;;;;;5041492;28;20064;-84
2023/03/31 09:04:29;;;;;;;0.68;0.52;;;10.40;99.90;;;;;;5041202;28;20117;-84
2023/03/31 09:06:55;;;;;;;;;;;10.40;99.90;;;;;;5041715;28;20078;-84
2023/03/31 09:09:39;;;;;;;0.10;0.10;;;10.40;99.90;;;;;;5040835;28;19932;-84
2023/03/31 09:12:13;;;;;;;0.00;0.00;;;10.50;99.90;;;;;;5041330;28;20096;-85
2023/03/31 09:15:04;;;;;;;1.38;0.85;;;10.40;99.90;;;;;;5040937;28;20056;-85
2023/03/31 09:17:33;;;;;;;0.00;0.00;;;10.30;99.90;;;;;;5039824;28;20041;-84
2023/03/31 09:20:21;;;;;;;0.00;0.00;;;10.40;99.90;;;;;;5033091;28;20867;-85
2023/03/31 09:23:12;;;;;;;0.00;0.00;;;10.40;99.90;;;;;;5023786;28;20045;-84
2023/03/31 09:25:40;;;;;;;0.17;0.17;;;10.40;99.90;;;;;;5019137;28;20511;-84
2023/03/31 09:28:15;;;;;;;0.17;0.10;;;10.40;99.90;;;;;;5020634;28;20124;-84
2023/03/31 09:30:42;;;;;;;0.47;0.47;;;10.40;99.90;;;;;;5020935;28;20053;-84
2023/03/31 09:33:36;;;;;;;0.00;0.00;;;10.50;99.90;;;;;;5020914;28;20382;-85
2023/03/31 09:36:13;;;;;;;0.60;0.52;;;10.70;99.90;;;;;;5019799;28;20453;-84
2023/03/31 09:38:41;;;;;;;0.00;0.00;;;10.70;99.90;;;;;;5020745;28;20053;-84
2023/03/31 09:41:08;;;;;;;0.00;0.00;;;10.80;99.90;;;;;;5020757;28;20045;-84
2023/03/31 09:43:34;;;;;;;0.63;0.47;;;10.90;99.90;;;;;;5020762;28;20041;-84
2023/03/31 09:46:01;;;;;;;0.00;0.00;;;10.90;99.90;;;;;;5020645;28;20053;-84
2023/03/31 09:48:31;;;;;;;3.78;0.10;;;10.80;99.90;;;;;;5020412;28;20392;-84
2023/03/31 09:51:04;;;;;;;0.05;0.05;;;10.80;99.90;;;;;;5020429;28;20052;-84
2023/03/31 09:53:52;;;;;;;0.90;0.47;;;10.80;99.90;;;;;;5020077;28;20159;-84
2023/03/31 09:56:45;;;;;;;0.00;0.00;;;10.90;99.90;;;;;;5020860;28;20060;-84
2023/03/31 09:59:17;;;;;;;0.20;0.20;;;11.00;99.90;;;;;;5021381;28;20085;-84
2023/03/31 10:01:45;;;;;;;0.10;0.10;;;11.10;99.90;;;;;;5021879;28;20049;-84
2023/03/31 10:04:33;;;;;;;0.10;0.00;;;11.20;99.90;;;;;;5021245;28;20361;-84
2023/03/31 10:07:02;;;;;;;0.63;0.63;;;11.20;99.90;;;;;;5021167;28;20042;-84
2023/03/31 10:09:33;;;;;;;0.15;0.10;;;11.20;99.90;;;;;;5021678;28;20065;-84
2023/03/31 10:12:04;;;;;;;0.00;0.00;;;11.10;99.90;;;;;;5019678;28;20083;-84
2023/03/31 10:14:47;;;;;;;0.10;0.10;;;11.20;99.90;;;;;;5020933;28;20469;-84
2023/03/31 10:17:19;;;;;;;0.10;0.10;;;11.30;99.90;;;;;;5020972;28;20514;-84
2023/03/31 10:19:51;;;;;;;0.00;0.00;;;11.40;99.90;;;;;;5022689;28;20045;-85
2023/03/31 10:22:20;;;;;;;0.22;0.10;;;11.60;99.90;;;;;;5040852;28;20044;-84
2023/03/31 10:24:47;;;;;;;0.00;0.00;;;11.50;99.90;;;;;;5040995;28;20132;-84
2023/03/31 10:27:28;;;;;;;0.98;0.32;;;11.60;99.90;;;;;;5040962;28;20710;-85
2023/03/31 10:29:56;;;;;;;0.00;0.00;;;11.70;99.90;;;;;;5043475;28;20059;-84
2023/03/31 10:32:31;;;;;;;0.32;0.20;;;11.70;99.90;;;;;;5037688;28;20056;-84
2023/03/31 10:35:13;;;;;;;0.00;0.00;;;11.80;99.90;;;;;;5026632;28;20084;-84
2023/03/31 10:37:39;;;;;;;0.00;0.00;;;11.70;99.90;;;;;;5025584;28;20120;-84
2023/03/31 10:40:15;;;;;;;0.00;0.00;;;11.60;99.90;;;;;;5025362;28;20099;-84
2023/03/31 10:42:45;;;;;;;3.00;0.80;;;11.30;99.90;;;;;;5040073;28;20131;-84
2023/03/31 10:45:26;;;;;;;0.00;0.00;;;11.20;99.90;;;;;;5044964;28;20144;-84
2023/03/31 10:47:54;;;;;;;0.00;0.00;;;11.20;99.90;;;;;;5045374;28;20120;-84
2023/03/31 10:50:33;;;;;;;0.00;0.00;;;11.30;99.90;;;;;;5044597;28;20049;-84
2023/03/31 10:53:11;;;;;;;0.00;0.00;;;11.30;99.90;;;;;;5043685;28;20514;-84
2023/03/31 10:56:11;;;;;;;0.00;0.00;;;11.40;99.90;;;;;;5028945;28;20045;-84
2023/03/31 10:58:55;;;;;;;0.00;0.00;;;11.70;99.90;;;;;;5029414;28;20649;-84
2023/03/31 11:01:45;;;;;;;3.72;1.35;;;12.00;99.90;;;;;;5027371;28;20064;-84
2023/03/31 11:04:40;;;;;;;0.38;0.28;;;12.20;99.90;;;;;;5043115;28;20044;-84
2023/03/31 11:07:11;;;;;;;0.00;0.00;;;12.50;99.90;;;;;;5043148;28;20444;-84
2023/03/31 11:10:14;;;;;;;0.28;0.10;;;12.80;99.90;;;;;;5043263;28;20429;-84
2023/03/31 11:12:50;;;;;;;0.00;0.00;;;13.20;99.90;;;;;;5042300;28;20540;-85
2023/03/31 11:15:31;;;;;;;0.20;0.15;;;13.70;99.90;;;;;;5042501;28;20135;-84
2023/03/31 11:18:21;;;;;;;0.00;0.00;;;13.50;99.90;;;;;;5042789;28;20634;-84
2023/03/31 11:21:12;;;;;;;0.30;0.25;;;13.90;99.90;;;;;;5042587;28;20053;-85
2023/03/31 11:23:41;;;;;;;0.00;0.00;;;14.10;99.90;;;;;;5042495;28;20079;-85
2023/03/31 11:26:18;;;;;;;0.28;0.28;;;14.00;99.90;;;;;;5042207;28;20050;-85
2023/03/31 11:28:43;;;;;;;;;;;14.00;99.90;;;;;;5043301;28;20053;-85
2023/03/31 11:31:21;;;;;;;0.83;0.43;;;14.10;1.00;;;;;;5042431;28;19993;-85
2023/03/31 11:34:16;;;;;;;0.35;0.32;;;14.30;99.90;;;;;;5041963;28;20052;-85
2023/03/31 11:37:24;;;;;;;1.70;0.55;;;14.60;1.00;;;;;;5042424;28;20107;-85
2023/03/31 11:40:08;;;;;;;0.05;0.05;;;14.70;99.90;;;;;;5041338;28;20088;-85
2023/03/31 11:43:14;;;;;;;0.28;0.20;;;14.30;45.90;;;;;;5041159;28;20041;-85
2023/03/31 11:45:54;;;;;;;0.10;0.10;;;13.80;99.90;;;;;;5041723;28;20061;-84
2023/03/31 11:48:49;;;;;;;0.35;0.28;;;13.40;99.90;;;;;;5043245;28;20044;-85
2023/03/31 11:51:23;;;;;;;0.00;0.00;;;13.00;99.90;;;;;;5045225;28;20445;-85
2023/03/31 11:53:51;;;;;;;0.65;0.35;;;12.80;99.90;;;;;;5062517;28;20082;-85
2023/03/31 11:56:18;;;;;;;0.52;0.43;;;13.10;99.90;;;;;;5060251;28;20406;-85
2023/03/31 11:58:56;;;;;;;0.00;0.00;;;13.40;38.90;;;;;;5062512;28;20051;-85
2023/03/31 12:01:46;;;;;;;0.32;0.30;;;14.30;99.90;;;;;;5057228;28;20396;-85
2023/03/31 12:04:34;;;;;;;0.00;0.00;;;13.60;1.00;;;;;;5041862;28;20539;-84
2023/03/31 12:07:10;;;;;;;0.10;0.10;;;13.60;99.90;;;;;;5041915;28;20048;-85
2023/03/31 12:09:52;;;;;;;0.00;0.00;;;13.60;99.90;;;;;;5042039;28;20475;-85
2023/03/31 12:12:26;;;;;;;0.32;0.32;;;13.50;99.90;;;;;;5041414;28;20044;-85
2023/03/31 12:15:21;;;;;;;0.00;0.00;;;13.50;93.20;;;;;;5041201;28;20059;-85
2023/03/31 12:17:56;;;;;;;1.17;0.95;;;13.20;1.00;;;;;;5040559;28;20044;-85
2023/03/31 12:20:32;;;;;;;0.28;0.28;;;14.30;23.70;;;;;;5039573;28;20510;-85
2023/03/31 12:22:59;;;;;;;;;;;13.20;99.90;;;;;;5041423;28;20049;-85
2023/03/31 12:25:41;;;;;;;0.00;0.00;;;13.10;1.00;;;;;;5041100;28;19931;-83
2023/03/31 12:28:08;;;;;;;0.05;0.05;;;13.00;99.90;;;;;;5059229;28;20123;-86
2023/03/31 12:30:40;;;;;;;0.63;0.45;;;13.10;15.20;;;;;;5061216;28;20056;-86
2023/03/31 12:33:12;;;;;;;0.17;0.17;;;14.00;99.90;;;;;;5061201;28;20041;-85
2023/03/31 12:36:17;;;;;;;0.17;0.17;;;13.00;99.90;;;;;;5061110;28;20520;-85
2023/03/31 12:39:24;;;;;;;0.00;0.00;;;13.00;1.00;;;;;;5009919;28;20062;-85
2023/03/31 12:42:14;;;;;;;2.45;1.35;;;13.00;54.00;;;;;;5021096;28;20053;-85
2023/03/31 12:45:29;;;;;;;0.00;0.00;;;13.00;99.90;;;;;;5021458;28;20273;-85
2023/03/31 12:48:25;;;;;;;0.55;0.32;;;13.10;99.90;;;;;;5036836;28;20041;-85
2023/03/31 12:51:12;;;;;;;0.00;0.00;;;13.30;99.90;;;;;;5040458;28;20049;-85
2023/03/31 12:54:21;;;;;;;0.30;0.30;;;13.40;99.90;;;;;;5041270;28;20053;-85
2023/03/31 12:56:59;;;;;;;0.35;0.35;;;13.80;99.90;;;;;;5037145;28;20056;-85
2023/03/31 12:59:41;;;;;;;0.43;0.43;;;14.10;99.90;;;;;;5040319;28;20376;-85
2023/03/31 13:02:23;;;;;;;0.10;0.08;;;14.50;99.90;;;;;;5040658;28;20434;-84
2023/03/31 13:04:49;;;;;;;0.00;0.00;;;14.80;99.90;;;;;;5040253;28;20131;-85
2023/03/31 13:07:24;;;;;;;0.30;0.30;;;14.50;99.90;;;;;;5039404;28;20037;-85
2023/03/31 13:10:20;;;;;;;0.00;0.00;;;14.10;99.90;;;;;;5040088;28;20045;-85
2023/03/31 13:13:13;;;;;;;0.10;0.10;;;14.00;99.90;;;;;;5039253;28;20186;-85
2023/03/31 13:15:40;;;;;;;1.63;0.93;;;14.20;99.90;;;;;;5039550;28;20049;-84
2023/03/31 13:18:15;;;;;;;3.72;0.65;;;14.20;16.20;;;;;;5039887;28;20132;-85
2023/03/31 13:20:41;;;;;;;0.43;0.43;;;14.50;99.90;;;;;;5039901;28;20045;-85
2023/03/31 13:23:19;;;;;;;0.35;0.20;;;14.00;99.90;;;;;;5039827;28;20048;-85